createdAt,value
2018-06-21T00:00:13.808Z,3.27
2018-06-21T00:02:43.456Z,3.43
2018-06-21T00:05:12.382Z,3.03
2018-06-21T00:07:41.419Z,3.27
2018-06-21T00:10:10.034Z,3.53
2018-06-21T00:12:39.383Z,3.40
2018-06-21T00:15:09.386Z,3.37
2018-06-21T00:17:38.345Z,2.90
2018-06-21T00:20:07.952Z,3.23
2018-06-21T00:22:37.598Z,3.50
2018-06-21T00:25:07.958Z,3.17
2018-06-21T00:27:37.007Z,3.27
2018-06-21T00:30:06.772Z,3.40
2018-06-21T00:32:37.374Z,3.17
2018-06-21T00:35:06.828Z,3.10
2018-06-21T00:37:36.056Z,3.00
2018-06-21T00:40:05.818Z,3.40
2018-06-21T00:42:36.901Z,3.17
2018-06-21T00:45:06.065Z,3.23
2018-06-21T00:47:35.386Z,2.73
2018-06-21T00:50:04.754Z,3.13
2018-06-21T00:52:34.513Z,3.30
2018-06-21T00:55:03.797Z,3.20
2018-06-21T00:57:33.439Z,3.30
2018-06-21T01:00:03.089Z,3.20
2018-06-21T01:02:32.247Z,3.13
2018-06-21T01:05:00.935Z,2.90
2018-06-21T01:07:30.332Z,2.70
2018-06-21T01:09:59.265Z,3.07
2018-06-21T01:12:29.274Z,3.03
2018-06-21T01:14:58.661Z,2.97
2018-06-21T01:17:27.945Z,3.20
2018-06-21T01:19:58.309Z,2.83
2018-06-21T01:22:27.591Z,2.90
2018-06-21T01:24:56.996Z,3.00
2018-06-21T01:27:25.938Z,3.00
2018-06-21T01:29:55.954Z,3.10
2018-06-21T01:32:26.081Z,3.40
2018-06-21T01:34:56.527Z,3.00
2018-06-21T01:37:26.292Z,2.50
2018-06-21T01:39:55.220Z,2.90
2018-06-21T01:42:24.863Z,2.60
2018-06-21T01:44:54.028Z,2.90
2018-06-21T01:47:24.383Z,3.07
2018-06-21T01:49:53.435Z,2.70
2018-06-21T01:52:22.491Z,2.90
2018-06-21T01:54:51.992Z,2.87
2018-06-21T01:57:23.796Z,2.77
2018-06-21T01:59:53.199Z,2.57
2018-06-21T02:02:22.127Z,2.60
2018-06-21T02:04:51.165Z,2.53
2018-06-21T02:07:20.096Z,2.90
2018-06-21T02:09:49.138Z,2.83
2018-06-21T02:12:18.534Z,2.87
2018-06-21T02:14:47.703Z,2.73
2018-06-21T02:17:16.860Z,2.80
2018-06-21T02:19:46.511Z,3.10
2018-06-21T02:22:15.546Z,2.87
2018-06-21T02:24:45.069Z,2.70
2018-06-21T02:27:14.715Z,2.87
2018-06-21T02:29:43.645Z,2.60
2018-06-21T02:32:13.519Z,2.77
2018-06-21T02:34:42.564Z,2.63
2018-06-21T02:37:11.726Z,2.83
2018-06-21T02:39:41.031Z,2.57
2018-06-21T02:42:10.172Z,2.90
2018-06-21T02:44:39.216Z,2.63
2018-06-21T02:47:07.780Z,2.93
2018-06-21T02:49:37.302Z,2.70
2018-06-21T02:52:06.472Z,2.73
2018-06-21T02:54:35.514Z,2.67
2018-06-21T02:57:04.559Z,2.37
2018-06-21T02:59:33.354Z,2.30
2018-06-21T03:02:02.878Z,2.43
2018-06-21T03:04:31.927Z,2.70
2018-06-21T03:07:00.974Z,3.20
2018-06-21T03:09:30.971Z,2.57
2018-06-21T03:12:00.134Z,2.70
2018-06-21T03:14:29.542Z,2.53
2018-06-21T03:17:00.375Z,2.70
2018-06-21T03:19:29.547Z,2.63
2018-06-21T03:21:58.389Z,2.80
2018-06-21T03:24:28.347Z,2.60
2018-06-21T03:26:57.509Z,2.83
2018-06-21T03:29:26.438Z,3.07
2018-06-21T03:31:55.604Z,2.90
2018-06-21T03:34:25.003Z,2.70
2018-06-21T03:36:54.161Z,2.60
2018-06-21T03:39:23.331Z,3.47
2018-06-21T03:41:52.495Z,3.10
2018-06-21T03:44:21.770Z,3.20
2018-06-21T03:46:50.944Z,3.40
2018-06-21T03:49:20.339Z,3.40
2018-06-21T03:51:50.942Z,3.20
2018-06-21T03:54:19.992Z,3.80
2018-06-21T03:56:49.030Z,3.67
2018-06-21T03:59:19.394Z,3.13
2018-06-21T04:01:48.793Z,3.47
2018-06-21T04:04:18.797Z,3.23
2018-06-21T04:06:49.423Z,3.03
2018-06-21T04:09:19.168Z,3.47
2018-06-21T04:11:49.165Z,3.03
2018-06-21T04:14:18.725Z,3.73
2018-06-21T04:16:48.334Z,3.53
2018-06-21T04:19:17.385Z,3.07
2018-06-21T04:21:47.504Z,3.40
2018-06-21T04:24:17.380Z,3.10
2018-06-21T04:26:46.192Z,3.43
2018-06-21T04:29:15.715Z,3.90
2018-06-21T04:31:45.233Z,3.50
2018-06-21T04:34:14.282Z,3.30
2018-06-21T04:36:44.523Z,3.67
2018-06-21T04:39:13.207Z,3.80
2018-06-21T04:41:42.243Z,3.77
2018-06-21T04:44:11.405Z,3.80
2018-06-21T04:46:40.571Z,3.63
2018-06-21T04:49:10.092Z,4.20
2018-06-21T04:51:39.376Z,4.55
2018-06-21T04:54:09.021Z,4.23
2018-06-21T04:56:38.541Z,4.20
2018-06-21T04:59:08.906Z,3.87
2018-06-21T05:01:38.067Z,4.43
2018-06-21T05:04:08.311Z,4.70
2018-06-21T05:06:37.725Z,4.70
2018-06-21T05:09:11.830Z,4.40
2018-06-21T05:11:40.970Z,4.70
2018-06-21T05:14:10.371Z,4.90
2018-06-21T05:16:39.439Z,5.73
2018-06-21T05:19:08.810Z,5.00
2018-06-21T05:21:37.974Z,4.87
2018-06-21T05:24:07.618Z,4.97
2018-06-21T05:26:36.232Z,5.17
2018-06-21T05:29:05.470Z,5.10
2018-06-21T05:31:35.828Z,5.40
2018-06-21T05:34:04.870Z,4.73
2018-06-21T05:36:33.848Z,5.27
2018-06-21T05:39:03.318Z,4.93
2018-06-21T05:41:32.843Z,5.20
2018-06-21T05:44:01.885Z,5.07
2018-06-21T05:46:31.286Z,4.93
2018-06-21T05:49:00.337Z,4.93
2018-06-21T05:51:29.732Z,5.07
2018-06-21T05:53:58.540Z,4.53
2018-06-21T05:56:27.350Z,4.67
2018-06-21T05:58:56.500Z,4.80
2018-06-21T06:01:27.823Z,4.80
2018-06-21T06:03:57.350Z,4.63
2018-06-21T06:06:27.362Z,4.63
2018-06-21T06:08:56.763Z,5.03
2018-06-21T06:11:25.684Z,4.80
2018-06-21T06:13:54.724Z,5.20
2018-06-21T06:16:23.767Z,5.30
2018-06-21T06:18:54.487Z,5.20
2018-06-21T06:21:23.655Z,5.10
2018-06-21T06:23:52.955Z,5.00
2018-06-21T06:26:22.338Z,4.63
2018-06-21T06:28:53.781Z,4.47
2018-06-21T06:31:23.182Z,4.70
2018-06-21T06:33:54.272Z,4.13
2018-06-21T06:36:25.348Z,4.17
2018-06-21T06:38:54.399Z,4.27
2018-06-21T06:41:23.558Z,4.23
2018-06-21T06:43:52.480Z,3.90
2018-06-21T06:46:21.101Z,4.00
2018-06-21T06:48:49.537Z,4.10
2018-06-21T06:51:18.078Z,4.00
2018-06-21T06:53:46.553Z,3.50
2018-06-21T06:56:15.085Z,4.27
2018-06-21T06:58:43.588Z,3.60
2018-06-21T07:01:12.060Z,3.80
2018-06-21T07:03:40.620Z,3.77
2018-06-21T07:06:09.089Z,3.77
2018-06-21T07:08:37.641Z,3.63
2018-06-21T07:11:06.536Z,3.70
2018-06-21T07:13:35.011Z,3.77
2018-06-21T07:16:03.549Z,3.23
2018-06-21T07:18:32.101Z,3.43
2018-06-21T07:21:00.569Z,2.70
2018-06-21T07:23:29.177Z,2.43
2018-06-21T07:25:57.650Z,2.80
2018-06-21T07:28:26.274Z,2.53
2018-06-21T07:30:54.751Z,2.30
2018-06-21T07:33:23.233Z,2.57
2018-06-21T07:35:51.732Z,2.40
2018-06-21T07:38:20.225Z,2.20
2018-06-21T07:40:48.729Z,2.33
2018-06-21T07:43:17.221Z,2.27
2018-06-21T07:45:45.684Z,2.47
2018-06-21T07:48:14.165Z,2.43
2018-06-21T07:50:42.876Z,2.47
2018-06-21T07:53:11.715Z,2.43
2018-06-21T07:55:40.177Z,2.73
2018-06-21T07:58:09.185Z,2.30
2018-06-21T08:00:37.760Z,2.30
2018-06-21T08:03:06.281Z,2.70
2018-06-21T08:05:34.933Z,2.67
2018-06-21T08:08:03.578Z,2.73
2018-06-21T08:10:32.117Z,2.40
2018-06-21T08:13:00.770Z,2.73
2018-06-21T08:15:29.676Z,2.73
2018-06-21T08:17:58.505Z,2.27
2018-06-21T08:20:27.300Z,2.43
2018-06-21T08:22:56.036Z,2.07
2018-06-21T08:25:24.756Z,2.63
2018-06-21T08:27:53.225Z,2.10
2018-06-21T08:30:21.736Z,6.33
2018-06-21T08:32:50.200Z,2.00
2018-06-21T08:35:18.669Z,3.20
2018-06-21T08:37:47.264Z,6.03
2018-06-21T08:40:16.021Z,2.43
2018-06-21T08:42:44.525Z,2.53
2018-06-21T08:45:13.009Z,2.20
2018-06-21T08:47:41.504Z,2.60
2018-06-21T08:50:09.985Z,2.20
2018-06-21T08:52:38.478Z,2.10
2018-06-21T08:55:07.152Z,2.13
2018-06-21T08:57:35.655Z,1.90
2018-06-21T09:00:04.273Z,2.03
2018-06-21T09:02:33.301Z,1.70
2018-06-21T09:05:01.802Z,2.20
2018-06-21T09:07:30.276Z,2.13
2018-06-21T09:09:58.803Z,2.23
2018-06-21T09:12:31.480Z,2.37
2018-06-21T09:14:59.973Z,1.87
2018-06-21T09:17:28.461Z,2.10
2018-06-21T09:19:56.921Z,1.93
2018-06-21T09:22:25.409Z,1.93
2018-06-21T09:24:53.878Z,2.13
2018-06-21T09:27:22.348Z,2.40
2018-06-21T09:29:50.864Z,2.10
2018-06-21T09:32:19.334Z,3.33
2018-06-21T09:34:47.813Z,3.53
2018-06-21T09:37:20.534Z,3.53
2018-06-21T09:39:54.445Z,3.90
2018-06-21T09:42:28.313Z,4.60
2018-06-21T09:44:58.953Z,4.60
2018-06-21T09:47:32.765Z,5.57
2018-06-21T09:50:01.837Z,5.27
2018-06-21T09:52:30.349Z,5.70
2018-06-21T09:54:59.038Z,5.40
2018-06-21T09:57:27.503Z,5.23
2018-06-21T09:59:56.001Z,5.30
2018-06-21T10:02:24.541Z,4.80
2018-06-21T10:04:53.065Z,4.73
2018-06-21T10:07:21.533Z,5.03
2018-06-21T10:09:50.112Z,4.80
2018-06-21T10:12:18.990Z,5.27
2018-06-21T10:14:47.676Z,4.50
2018-06-21T10:17:16.176Z,4.40
2018-06-21T10:19:45.522Z,4.37
2018-06-21T10:22:13.989Z,4.60
2018-06-21T10:24:42.501Z,4.70
2018-06-21T10:27:10.974Z,4.80
2018-06-21T10:29:39.461Z,5.00
2018-06-21T10:32:07.937Z,4.50
2018-06-21T10:34:36.397Z,5.20
2018-06-21T10:37:04.897Z,5.37
2018-06-21T10:39:33.376Z,5.10
2018-06-21T10:42:01.857Z,6.03
2018-06-21T10:44:30.389Z,6.50
2018-06-21T10:46:58.869Z,6.23
2018-06-21T10:49:27.359Z,5.60
2018-06-21T10:51:55.853Z,5.87
2018-06-21T10:54:24.322Z,5.97
2018-06-21T10:56:52.817Z,6.83
2018-06-21T10:59:21.321Z,5.90
2018-06-21T11:01:49.865Z,6.10
2018-06-21T11:04:18.329Z,5.77
2018-06-21T11:06:49.733Z,6.10
2018-06-21T11:09:18.260Z,5.63
2018-06-21T11:11:46.765Z,5.80
2018-06-21T11:14:15.332Z,5.10
2018-06-21T11:16:43.837Z,6.77
2018-06-21T11:19:12.328Z,5.67
2018-06-21T11:21:40.811Z,5.87
2018-06-21T11:24:09.293Z,5.33
2018-06-21T11:26:37.787Z,5.20
2018-06-21T11:29:06.252Z,6.07
2018-06-21T11:31:34.716Z,6.17
2018-06-21T11:34:03.205Z,5.93
2018-06-21T11:36:31.681Z,5.60
2018-06-21T11:39:00.317Z,5.93
2018-06-21T11:41:28.832Z,5.83
2018-06-21T11:43:57.329Z,5.30
2018-06-21T11:46:26.061Z,4.87
2018-06-21T11:48:54.556Z,4.10
2018-06-21T11:51:23.029Z,4.43
2018-06-21T11:53:52.374Z,3.77
2018-06-21T11:56:20.869Z,3.80
2018-06-21T11:58:49.469Z,3.10
2018-06-21T12:01:18.310Z,2.70
2018-06-21T12:03:46.816Z,3.10
2018-06-21T12:06:15.353Z,2.83
2018-06-21T12:08:43.913Z,2.33
2018-06-21T12:11:12.388Z,2.63
2018-06-21T12:13:40.862Z,2.50
2018-06-21T12:16:09.368Z,2.30
2018-06-21T12:18:37.832Z,1.80
2018-06-21T12:21:06.308Z,1.80
2018-06-21T12:23:34.881Z,2.00
2018-06-21T12:26:03.368Z,1.60
2018-06-21T12:28:31.844Z,1.77
2018-06-21T12:31:00.348Z,1.60
2018-06-21T12:33:28.817Z,1.50
2018-06-21T12:35:57.500Z,1.50
2018-06-21T12:38:25.991Z,1.30
2018-06-21T12:40:54.497Z,1.60
2018-06-21T12:43:23.429Z,1.50
2018-06-21T12:45:51.925Z,1.77
2018-06-21T12:48:20.477Z,1.50
2018-06-21T12:50:49.128Z,1.70
2018-06-21T12:53:17.641Z,1.53
2018-06-21T12:55:46.481Z,2.03
2018-06-21T12:58:14.974Z,1.80
2018-06-21T13:00:43.777Z,1.70
2018-06-21T13:03:12.409Z,2.00
2018-06-21T13:05:40.893Z,1.60
2018-06-21T13:08:09.382Z,1.70
2018-06-21T13:12:21.021Z,1.77
2018-06-21T13:14:49.500Z,2.10
2018-06-21T13:17:17.988Z,1.40
2018-06-21T13:19:46.457Z,1.50
2018-06-21T13:22:14.969Z,1.80
2018-06-21T13:24:43.825Z,1.70
2018-06-21T13:27:12.329Z,1.80
2018-06-21T13:29:41.237Z,1.50
2018-06-21T13:32:09.689Z,1.50
2018-06-21T13:34:38.583Z,1.60
2018-06-21T13:37:07.768Z,1.90
2018-06-21T13:39:36.263Z,1.67
2018-06-21T13:42:04.941Z,1.73
2018-06-21T13:44:33.409Z,1.50
2018-06-21T13:47:02.548Z,1.33
2018-06-21T13:49:31.002Z,1.60
2018-06-21T13:51:59.754Z,1.47
2018-06-21T13:54:28.637Z,1.40
2018-06-21T13:56:57.164Z,1.50
2018-06-21T13:59:25.629Z,1.60
2018-06-21T14:01:54.116Z,1.40
2018-06-21T14:04:22.700Z,1.23
2018-06-21T14:06:51.242Z,1.70
2018-06-21T14:09:19.725Z,1.37
2018-06-21T14:11:48.229Z,1.20
2018-06-21T14:14:16.713Z,1.27
2018-06-21T14:16:45.190Z,1.20
2018-06-21T14:19:13.703Z,1.33
2018-06-21T14:21:43.308Z,1.30
2018-06-21T14:24:12.996Z,1.40
2018-06-21T14:26:41.797Z,1.63
2018-06-21T14:29:10.323Z,1.43
2018-06-21T14:31:38.825Z,1.70
2018-06-21T14:34:07.317Z,1.53
2018-06-21T14:36:35.809Z,1.40
2018-06-21T14:39:06.554Z,1.33
2018-06-21T14:41:35.035Z,1.63
2018-06-21T14:44:03.721Z,1.63
2018-06-21T14:46:32.341Z,1.40
2018-06-21T14:51:19.308Z,1.90
2018-06-21T14:54:04.599Z,1.50
2018-06-21T15:01:44.928Z,1.70
2018-06-21T15:07:34.145Z,1.50
2018-06-21T15:10:18.108Z,1.13
2018-06-21T15:13:01.963Z,1.40
2018-06-21T15:15:36.595Z,1.50
2018-06-21T15:18:16.663Z,1.23
2018-06-21T15:20:55.397Z,1.13
2018-06-21T15:23:35.873Z,1.40
2018-06-21T15:26:15.636Z,1.50
2018-06-21T15:32:06.280Z,1.20
2018-06-21T15:34:50.443Z,0.83
2018-06-21T15:38:28.168Z,1.20
2018-06-21T15:41:05.673Z,1.23
2018-06-21T15:43:58.866Z,1.40
2018-06-21T15:46:52.429Z,1.30
2018-06-21T15:49:32.805Z,1.40
2018-06-21T15:52:23.311Z,1.03
2018-06-21T15:55:04.099Z,1.00
2018-06-21T16:04:05.433Z,1.33
2018-06-21T16:06:47.240Z,1.23
2018-06-21T16:09:38.271Z,1.50
2018-06-21T16:12:25.202Z,1.00
2018-06-21T16:15:06.689Z,1.00
2018-06-21T16:17:50.136Z,1.10
2018-06-21T16:20:32.874Z,1.27
2018-06-21T16:23:32.285Z,1.10
2018-06-21T16:26:05.899Z,1.43
2018-06-21T16:28:38.832Z,1.20
2018-06-21T16:31:19.354Z,1.00
2018-06-21T16:33:51.048Z,1.30
2018-06-21T16:36:28.651Z,0.90
2018-06-21T16:39:02.982Z,1.20
2018-06-21T16:42:07.216Z,0.93
2018-06-21T16:44:59.888Z,1.37
2018-06-21T16:48:03.806Z,1.40
2018-06-21T16:51:41.708Z,1.40
2018-06-21T16:54:21.592Z,1.43
2018-06-21T16:56:52.646Z,1.20
2018-06-21T16:59:25.523Z,1.00
2018-06-21T17:01:58.545Z,1.03
2018-06-21T17:04:39.535Z,1.20
2018-06-21T17:07:12.634Z,1.20
2018-06-21T17:09:50.652Z,1.30
2018-06-21T17:12:35.140Z,1.10
2018-06-21T17:15:07.819Z,1.13
2018-06-21T17:17:38.869Z,1.10
2018-06-21T17:20:13.798Z,1.60
2018-06-21T17:22:46.916Z,1.40
2018-06-21T17:25:20.792Z,1.40
2018-06-21T17:27:53.222Z,1.63
2018-06-21T17:30:27.689Z,1.53
2018-06-21T17:33:02.416Z,1.40
2018-06-21T17:35:34.276Z,1.20
2018-06-21T17:38:06.656Z,1.60
2018-06-21T17:40:38.630Z,1.50
2018-06-21T17:43:11.295Z,1.50
2018-06-21T17:45:49.648Z,1.50
2018-06-21T17:48:28.077Z,1.60
2018-06-21T17:51:01.414Z,1.20
2018-06-21T17:53:38.906Z,1.43
2018-06-21T17:56:16.607Z,1.27
2018-06-21T17:58:51.338Z,1.30
2018-06-21T18:01:29.665Z,1.37
2018-06-21T18:04:16.592Z,1.40
2018-06-21T18:06:50.205Z,1.40
2018-06-21T18:09:23.043Z,1.13
2018-06-21T18:11:55.753Z,1.37
2018-06-21T18:14:29.631Z,1.10
2018-06-21T18:17:02.516Z,1.60
2018-06-21T18:24:34.036Z,1.43
2018-06-21T18:27:08.013Z,1.27
2018-06-21T18:29:39.159Z,1.60
2018-06-21T18:32:14.264Z,1.57
2018-06-21T18:34:47.569Z,1.63
2018-06-21T18:37:19.962Z,1.40
2018-06-21T18:42:40.599Z,1.67
2018-06-21T18:45:21.279Z,1.33
2018-06-21T18:53:27.934Z,1.50
2018-06-21T18:56:05.142Z,1.23
2018-06-21T19:01:22.496Z,1.17
2018-06-21T19:04:01.222Z,1.40
2018-06-21T19:06:40.540Z,1.43
2018-06-21T19:09:19.621Z,1.23
2018-06-21T19:12:09.047Z,1.10
2018-06-21T19:14:41.700Z,1.33
2018-06-21T19:17:14.914Z,1.37
2018-06-21T19:19:49.540Z,1.37
2018-06-21T19:22:25.207Z,1.20
2018-06-21T19:24:57.285Z,1.33
2018-06-21T19:27:31.470Z,1.73
2018-06-21T19:30:06.605Z,1.13
2018-06-21T19:32:42.022Z,1.20
2018-06-21T19:35:18.812Z,1.40
2018-06-21T19:37:56.013Z,1.30
2018-06-21T19:40:28.497Z,1.30
2018-06-21T19:43:02.327Z,1.13
2018-06-21T19:45:38.281Z,1.30
2018-06-21T19:48:11.701Z,1.00
2018-06-21T19:50:42.552Z,1.20
2018-06-21T19:53:18.730Z,1.40
2018-06-21T19:55:52.046Z,1.20
2018-06-21T19:58:25.030Z,1.30
2018-06-21T20:00:57.305Z,1.30
2018-06-21T20:03:30.202Z,1.03
2018-06-21T20:06:06.376Z,1.50
2018-06-21T20:08:44.803Z,1.07
2018-06-21T20:11:24.562Z,1.03
2018-06-21T20:14:07.905Z,1.27
2018-06-21T20:16:54.217Z,1.23
2018-06-21T20:20:39.826Z,1.13
2018-06-21T20:23:26.754Z,1.30
2018-06-21T20:26:17.264Z,1.20
2018-06-21T20:28:59.482Z,1.30
2018-06-21T20:32:10.396Z,1.20
2018-06-21T20:34:50.335Z,1.17
2018-06-21T20:37:45.661Z,1.00
2018-06-21T20:40:24.190Z,1.30
2018-06-21T20:45:58.260Z,1.13
2018-06-21T20:49:00.580Z,1.30
2018-06-21T20:51:37.328Z,1.10
2018-06-21T20:54:20.300Z,1.20
2018-06-21T20:56:48.833Z,1.20
2018-06-21T20:59:17.373Z,1.40
2018-06-21T21:01:45.870Z,1.60
2018-06-21T21:04:14.328Z,1.53
2018-06-21T21:06:42.816Z,1.63
2018-06-21T21:09:11.369Z,1.17
2018-06-21T21:11:39.838Z,1.20
2018-06-21T21:14:09.157Z,1.40
2018-06-21T21:16:37.765Z,1.00
2018-06-21T21:19:06.434Z,1.20
2018-06-21T21:21:35.329Z,1.20
2018-06-21T21:24:03.879Z,1.37
2018-06-21T21:26:32.172Z,1.50
2018-06-21T21:29:00.970Z,1.20
2018-06-21T21:31:29.794Z,1.80
2018-06-21T21:33:58.446Z,1.53
2018-06-21T21:36:27.043Z,1.60
2018-06-21T21:38:55.813Z,1.17
2018-06-21T21:41:24.505Z,1.30
2018-06-21T21:43:53.106Z,1.20
2018-06-21T21:46:21.605Z,1.37
2018-06-21T21:48:50.076Z,1.33
2018-06-21T21:51:18.551Z,1.33
2018-06-21T21:53:47.076Z,1.50
2018-06-21T21:56:15.548Z,1.10
2018-06-21T21:58:44.027Z,1.43
2018-06-21T22:01:12.554Z,1.30
2018-06-21T22:03:41.026Z,1.40
2018-06-21T22:06:09.521Z,1.50
2018-06-21T22:08:37.986Z,1.27
2018-06-21T22:11:06.541Z,1.87
2018-06-21T22:13:35.093Z,1.20
2018-06-21T22:16:03.585Z,1.47
2018-06-21T22:18:32.077Z,1.33
2018-06-21T22:21:00.577Z,1.30
2018-06-21T22:23:29.053Z,1.40
2018-06-21T22:25:57.541Z,1.20
2018-06-21T22:28:26.034Z,1.80
2018-06-21T22:30:54.533Z,1.40
2018-06-21T22:33:23.048Z,1.80
2018-06-21T22:35:51.568Z,1.30
2018-06-21T22:38:20.047Z,1.20
2018-06-21T22:40:48.669Z,1.30
2018-06-21T22:43:17.141Z,1.17
2018-06-21T22:45:45.605Z,1.17
2018-06-21T22:48:14.125Z,1.30
2018-06-21T22:50:42.706Z,1.70
2018-06-21T22:53:11.097Z,1.17
2018-06-21T22:55:39.592Z,1.20
2018-06-21T22:58:08.116Z,1.23
2018-06-21T23:00:37.536Z,1.50
2018-06-21T23:03:09.313Z,1.83
2018-06-21T23:05:39.678Z,1.10
2018-06-21T23:08:09.201Z,1.20
2018-06-21T23:10:38.483Z,1.17
2018-06-21T23:13:09.208Z,1.23
2018-06-21T23:15:38.495Z,1.53
2018-06-21T23:18:08.742Z,1.33
2018-06-21T23:20:38.017Z,1.23
2018-06-21T23:23:07.780Z,1.30
2018-06-21T23:25:37.098Z,1.27
2018-06-21T23:28:06.586Z,1.50
2018-06-21T23:30:39.590Z,1.57
2018-06-21T23:33:09.354Z,1.43
2018-06-21T23:35:39.597Z,1.73
2018-06-21T23:38:08.763Z,1.67
2018-06-21T23:40:38.044Z,1.90
2018-06-21T23:43:07.925Z,1.70
2018-06-21T23:45:36.976Z,1.47
2018-06-21T23:48:06.251Z,1.53
2018-06-21T23:50:35.413Z,1.40
2018-06-21T23:53:04.466Z,1.60
2018-06-21T23:55:33.739Z,2.00
2018-06-21T23:58:05.185Z,2.00
